createdAt,value
2018-12-15T00:00:31.904Z,14.13
2018-12-15T00:03:03.071Z,13.80
2018-12-15T00:05:33.682Z,13.63
2018-12-15T00:08:02.530Z,14.13
2018-12-15T00:10:31.470Z,13.60
2018-12-15T00:13:00.507Z,12.60
2018-12-15T00:15:29.602Z,12.53
2018-12-15T00:17:58.599Z,12.27
2018-12-15T00:20:27.324Z,13.97
2018-12-15T00:22:55.877Z,13.13
2018-12-15T00:25:24.740Z,13.97
2018-12-15T00:27:53.726Z,12.63
2018-12-15T00:30:22.668Z,11.13
2018-12-15T00:32:51.892Z,14.17
2018-12-15T00:35:21.671Z,13.23
2018-12-15T00:37:50.303Z,11.77
2018-12-15T00:40:19.199Z,14.50
2018-12-15T00:42:48.847Z,14.30
2018-12-15T00:45:17.969Z,14.00
2018-12-15T00:47:46.736Z,14.43
2018-12-15T00:50:15.741Z,14.87
2018-12-15T00:52:45.756Z,13.70
2018-12-15T00:55:14.664Z,14.67
2018-12-15T00:57:43.371Z,13.90
2018-12-15T01:00:12.247Z,14.20
2018-12-15T01:02:41.171Z,14.77
2018-12-15T01:05:10.136Z,12.50
2018-12-15T01:07:39.082Z,14.00
2018-12-15T01:10:09.135Z,13.43
2018-12-15T01:12:38.347Z,13.40
2018-12-15T01:15:07.133Z,14.87
2018-12-15T01:17:36.026Z,14.23
2018-12-15T01:20:06.814Z,15.53
2018-12-15T01:22:35.751Z,13.60
2018-12-15T01:25:05.025Z,13.67
2018-12-15T01:27:34.070Z,14.87
2018-12-15T01:30:03.328Z,12.73
2018-12-15T01:32:32.432Z,14.13
2018-12-15T01:35:01.352Z,14.37
2018-12-15T01:37:30.428Z,14.37
2018-12-15T01:39:59.666Z,14.53
2018-12-15T01:42:29.122Z,14.67
2018-12-15T01:44:58.083Z,14.20
2018-12-15T01:47:27.035Z,15.37
2018-12-15T01:49:56.312Z,14.63
2018-12-15T01:52:26.167Z,12.93
2018-12-15T01:54:55.084Z,15.07
2018-12-15T01:57:24.044Z,15.10
2018-12-15T01:59:53.143Z,14.43
2018-12-15T02:02:22.355Z,14.27
2018-12-15T02:04:51.445Z,12.40
2018-12-15T02:07:20.321Z,13.20
2018-12-15T02:09:49.268Z,14.47
2018-12-15T02:12:18.548Z,13.67
2018-12-15T02:14:47.461Z,14.63
2018-12-15T02:17:16.384Z,14.27
2018-12-15T02:19:45.347Z,15.13
2018-12-15T02:22:14.442Z,14.90
2018-12-15T02:24:43.338Z,14.70
2018-12-15T02:27:12.127Z,14.03
2018-12-15T02:29:40.996Z,14.97
2018-12-15T02:32:09.983Z,14.73
2018-12-15T02:34:39.280Z,14.73
2018-12-15T02:37:08.429Z,14.67
2018-12-15T02:39:37.475Z,14.50
2018-12-15T02:42:07.275Z,14.00
2018-12-15T02:44:35.934Z,14.73
2018-12-15T02:47:04.785Z,14.13
2018-12-15T02:49:33.776Z,15.30
2018-12-15T02:52:02.696Z,13.90
2018-12-15T02:54:31.736Z,13.77
2018-12-15T02:57:01.173Z,14.43
2018-12-15T02:59:30.123Z,14.20
2018-12-15T03:01:59.064Z,14.07
2018-12-15T03:04:28.031Z,13.70
2018-12-15T03:06:56.916Z,14.47
2018-12-15T03:09:26.334Z,13.20
2018-12-15T03:11:55.281Z,14.40
2018-12-15T03:14:24.046Z,14.13
2018-12-15T03:17:03.222Z,14.57
2018-12-15T03:19:32.273Z,13.97
2018-12-15T03:22:01.192Z,12.70
2018-12-15T03:24:30.542Z,14.80
2018-12-15T03:26:59.222Z,13.27
2018-12-15T03:29:28.075Z,12.37
2018-12-15T03:31:58.331Z,14.23
2018-12-15T03:34:27.121Z,15.67
2018-12-15T03:36:56.039Z,13.63
2018-12-15T03:39:25.030Z,14.43
2018-12-15T03:41:54.517Z,15.93
2018-12-15T03:44:24.431Z,14.17
2018-12-15T03:46:53.616Z,15.27
2018-12-15T03:49:23.208Z,14.23
2018-12-15T03:51:52.698Z,15.50
2018-12-15T03:54:22.729Z,15.20
2018-12-15T03:56:52.609Z,14.43
2018-12-15T03:59:21.466Z,14.60
2018-12-15T04:01:51.419Z,14.00
2018-12-15T04:04:20.392Z,15.17
2018-12-15T04:06:49.328Z,14.20
2018-12-15T04:09:18.296Z,14.97
2018-12-15T04:11:47.241Z,14.73
2018-12-15T04:14:16.097Z,14.80
2018-12-15T04:16:45.320Z,15.00
2018-12-15T04:19:14.259Z,14.63
2018-12-15T04:21:44.303Z,14.80
2018-12-15T04:24:14.142Z,14.27
2018-12-15T04:26:43.069Z,14.83
2018-12-15T04:29:13.985Z,14.70
2018-12-15T04:31:43.096Z,14.83
2018-12-15T04:34:12.621Z,14.57
2018-12-15T04:36:41.605Z,15.13
2018-12-15T04:39:11.155Z,15.50
2018-12-15T04:41:40.060Z,14.33
2018-12-15T04:44:09.038Z,14.73
2018-12-15T04:46:37.724Z,16.07
2018-12-15T04:49:06.580Z,14.47
2018-12-15T04:51:36.953Z,15.93
2018-12-15T04:54:05.595Z,14.53
2018-12-15T04:56:34.545Z,15.77
2018-12-15T04:59:03.517Z,14.57
2018-12-15T05:01:33.255Z,15.60
2018-12-15T05:04:02.110Z,16.07
2018-12-15T05:06:31.048Z,11.83
2018-12-15T05:09:00.004Z,14.43
2018-12-15T05:11:29.284Z,12.80
2018-12-15T05:13:58.323Z,14.80
2018-12-15T05:16:27.278Z,14.20
2018-12-15T05:18:56.610Z,14.57
2018-12-15T05:21:25.768Z,14.17
2018-12-15T05:23:55.462Z,13.70
2018-12-15T05:26:24.271Z,12.27
2018-12-15T05:28:52.908Z,13.17
2018-12-15T05:31:21.476Z,15.43
2018-12-15T05:33:52.385Z,11.00
2018-12-15T05:36:21.013Z,14.37
2018-12-15T05:38:49.911Z,13.83
2018-12-15T05:41:18.902Z,16.17
2018-12-15T05:43:47.831Z,16.10
2018-12-15T05:46:16.862Z,16.03
2018-12-15T05:48:46.420Z,15.63
2018-12-15T05:51:15.515Z,15.93
2018-12-15T05:53:44.833Z,8.60
2018-12-15T05:56:13.773Z,13.37
2018-12-15T05:58:43.634Z,16.23
2018-12-15T06:01:13.276Z,14.47
2018-12-15T06:03:42.205Z,11.67
2018-12-15T06:06:13.182Z,14.03
2018-12-15T06:08:42.209Z,9.07
2018-12-15T06:11:11.441Z,9.60
2018-12-15T06:13:40.866Z,14.47
2018-12-15T06:16:09.512Z,14.30
2018-12-15T06:18:38.153Z,10.63
2018-12-15T06:21:07.061Z,15.57
2018-12-15T06:23:35.784Z,15.50
2018-12-15T06:26:04.922Z,10.93
2018-12-15T06:28:33.889Z,13.53
2018-12-15T06:31:03.056Z,16.47
2018-12-15T06:33:31.980Z,15.67
2018-12-15T06:36:00.957Z,15.13
2018-12-15T06:38:30.065Z,11.70
2018-12-15T06:40:58.720Z,15.07
2018-12-15T06:43:27.999Z,9.20
2018-12-15T06:45:57.298Z,14.63
2018-12-15T06:48:26.210Z,14.80
2018-12-15T06:50:55.211Z,10.03
2018-12-15T06:53:24.239Z,13.33
2018-12-15T06:55:52.909Z,13.50
2018-12-15T06:58:21.886Z,14.90
2018-12-15T07:00:50.856Z,12.07
2018-12-15T07:03:19.793Z,13.50
2018-12-15T07:05:48.789Z,10.23
2018-12-15T07:08:17.881Z,11.20
2018-12-15T07:10:46.591Z,9.47
2018-12-15T07:13:15.134Z,11.77
2018-12-15T07:15:44.241Z,14.13
2018-12-15T07:18:13.320Z,15.03
2018-12-15T07:20:41.973Z,12.23
2018-12-15T07:23:11.148Z,14.00
2018-12-15T07:25:40.651Z,12.97
2018-12-15T07:28:09.943Z,15.47
2018-12-15T07:30:40.115Z,16.00
2018-12-15T07:33:09.142Z,14.27
2018-12-15T07:35:38.569Z,15.67
2018-12-15T07:38:07.304Z,14.50
2018-12-15T07:40:36.562Z,10.23
2018-12-15T07:43:05.603Z,16.07
2018-12-15T07:45:35.204Z,13.87
2018-12-15T07:48:04.256Z,14.17
2018-12-15T07:50:33.484Z,14.17
2018-12-15T07:53:02.501Z,16.00
2018-12-15T07:55:31.812Z,13.57
2018-12-15T07:58:00.785Z,15.20
2018-12-15T08:00:31.174Z,16.33
2018-12-15T08:03:01.144Z,16.23
2018-12-15T08:05:30.160Z,12.90
2018-12-15T08:07:58.887Z,11.90
2018-12-15T08:10:30.078Z,16.27
2018-12-15T08:13:03.203Z,13.23
2018-12-15T08:15:32.579Z,15.77
2018-12-15T08:18:01.216Z,15.77
2018-12-15T08:20:30.290Z,9.90
2018-12-15T08:22:59.356Z,10.30
2018-12-15T08:25:28.512Z,15.37
2018-12-15T08:27:57.494Z,15.20
2018-12-15T08:30:26.546Z,14.03
2018-12-15T08:32:55.588Z,15.57
2018-12-15T08:35:24.361Z,14.43
2018-12-15T08:37:53.354Z,12.10
2018-12-15T08:40:22.487Z,14.50
2018-12-15T08:42:51.704Z,14.17
2018-12-15T08:45:20.430Z,15.63
2018-12-15T08:47:48.997Z,15.90
2018-12-15T08:50:18.465Z,15.13
2018-12-15T08:52:47.193Z,15.00
2018-12-15T08:55:16.163Z,12.60
2018-12-15T08:57:45.222Z,15.03
2018-12-15T09:00:14.983Z,15.30
2018-12-15T09:02:43.673Z,15.37
2018-12-15T09:05:12.682Z,15.57
2018-12-15T09:07:41.667Z,15.27
2018-12-15T09:10:10.556Z,14.60
2018-12-15T09:12:39.241Z,15.43
2018-12-15T09:15:08.906Z,15.77
2018-12-15T09:17:37.918Z,14.70
2018-12-15T09:20:07.434Z,15.07
2018-12-15T09:22:36.857Z,15.57
2018-12-15T09:25:05.753Z,14.67
2018-12-15T09:27:34.344Z,15.17
2018-12-15T09:30:04.117Z,11.90
2018-12-15T09:32:32.817Z,14.77
2018-12-15T09:35:01.807Z,15.33
2018-12-15T09:37:30.728Z,14.37
2018-12-15T09:39:59.435Z,15.00
2018-12-15T09:42:28.610Z,12.53
2018-12-15T09:44:57.642Z,12.30
2018-12-15T09:47:26.273Z,15.90
2018-12-15T09:49:55.355Z,16.03
2018-12-15T09:52:24.340Z,16.07
2018-12-15T09:54:53.194Z,16.00
2018-12-15T09:57:21.967Z,16.03
2018-12-15T09:59:50.810Z,15.70
2018-12-15T10:02:19.505Z,14.60
2018-12-15T10:04:48.605Z,12.93
2018-12-15T10:07:17.257Z,13.50
2018-12-15T10:09:46.255Z,13.83
2018-12-15T10:12:15.266Z,15.00
2018-12-15T10:14:44.247Z,15.57
2018-12-15T10:17:13.695Z,13.80
2018-12-15T10:19:42.277Z,9.87
2018-12-15T10:22:11.137Z,14.87
2018-12-15T10:24:40.539Z,13.53
2018-12-15T10:27:09.331Z,14.60
2018-12-15T10:29:43.511Z,12.73
2018-12-15T10:32:17.692Z,14.77
2018-12-15T10:34:46.634Z,13.97
2018-12-15T10:37:15.312Z,15.10
2018-12-15T10:39:44.352Z,15.43
2018-12-15T10:42:14.219Z,14.90
2018-12-15T10:44:43.205Z,16.47
2018-12-15T10:47:12.163Z,16.63
2018-12-15T10:49:43.190Z,13.40
2018-12-15T10:52:12.187Z,14.50
2018-12-15T10:54:42.320Z,15.07
2018-12-15T10:57:10.944Z,13.03
2018-12-15T10:59:39.521Z,14.73
2018-12-15T11:02:10.119Z,14.73
2018-12-15T11:04:39.184Z,13.83
2018-12-15T11:07:08.200Z,14.37
2018-12-15T11:09:37.137Z,14.90
2018-12-15T11:12:06.170Z,13.90
2018-12-15T11:14:35.356Z,14.43
2018-12-15T11:17:04.873Z,14.10
2018-12-15T11:19:37.333Z,14.53
2018-12-15T11:22:06.034Z,16.00
2018-12-15T11:24:34.709Z,13.93
2018-12-15T11:27:03.491Z,12.37
2018-12-15T11:29:32.478Z,12.47
2018-12-15T11:32:01.899Z,12.60
2018-12-15T11:34:30.551Z,13.77
2018-12-15T11:37:00.787Z,15.03
2018-12-15T11:39:29.554Z,14.97
2018-12-15T11:41:58.426Z,13.57
2018-12-15T11:44:32.015Z,12.40
2018-12-15T11:47:00.993Z,14.70
2018-12-15T11:49:30.193Z,18.20
2018-12-15T11:51:59.311Z,14.57
2018-12-15T11:54:28.404Z,13.83
2018-12-15T11:56:57.523Z,11.93
2018-12-15T11:59:27.602Z,14.77
2018-12-15T12:01:56.556Z,14.47
2018-12-15T12:04:25.241Z,14.07
2018-12-15T12:06:53.916Z,13.27
2018-12-15T12:09:22.735Z,13.27
2018-12-15T12:11:51.866Z,15.17
2018-12-15T12:14:20.851Z,14.23
2018-12-15T12:16:50.597Z,14.07
2018-12-15T12:19:19.883Z,15.13
2018-12-15T12:21:48.713Z,10.50
2018-12-15T12:24:17.900Z,14.73
2018-12-15T12:26:48.559Z,12.97
2018-12-15T12:29:17.253Z,13.70
2018-12-15T12:31:46.548Z,11.13
2018-12-15T12:34:15.556Z,12.47
2018-12-15T12:36:44.722Z,9.53
2018-12-15T12:39:13.773Z,14.90
2018-12-15T12:41:44.306Z,14.10
2018-12-15T12:44:13.631Z,14.83
2018-12-15T12:46:42.663Z,14.03
2018-12-15T12:49:11.781Z,13.73
2018-12-15T12:51:40.950Z,14.47
2018-12-15T12:54:11.232Z,12.43
2018-12-15T12:56:39.905Z,10.33
2018-12-15T12:59:10.962Z,10.37
2018-12-15T13:01:40.177Z,12.00
2018-12-15T13:04:11.414Z,12.47
2018-12-15T13:06:40.630Z,14.57
2018-12-15T13:09:11.356Z,13.80
2018-12-15T13:11:40.871Z,14.40
2018-12-15T13:14:10.110Z,14.47
2018-12-15T13:16:39.242Z,13.37
2018-12-15T13:19:08.399Z,14.23
2018-12-15T13:21:38.020Z,12.67
2018-12-15T13:24:07.326Z,14.00
2018-12-15T13:26:37.243Z,13.80
2018-12-15T13:29:06.094Z,13.37
2018-12-15T13:31:35.068Z,12.07
2018-12-15T13:34:04.748Z,12.10
2018-12-15T13:36:33.853Z,14.90
2018-12-15T13:39:03.347Z,14.50
2018-12-15T13:41:32.325Z,14.37
2018-12-15T13:44:01.413Z,14.50
2018-12-15T13:46:30.596Z,12.97
2018-12-15T13:48:59.579Z,13.73
2018-12-15T13:51:28.632Z,13.63
2018-12-15T13:53:58.222Z,14.43
2018-12-15T13:56:27.016Z,12.90
2018-12-15T13:58:56.103Z,13.77
2018-12-15T14:01:24.906Z,14.87
2018-12-15T14:03:53.517Z,13.77
2018-12-15T14:06:22.512Z,13.27
2018-12-15T14:08:52.335Z,13.83
2018-12-15T14:11:21.308Z,14.57
2018-12-15T14:13:51.190Z,12.17
2018-12-15T14:16:20.119Z,13.20
2018-12-15T14:18:49.095Z,14.57
2018-12-15T14:21:19.817Z,11.47
2018-12-15T14:23:52.441Z,12.20
2018-12-15T14:26:25.410Z,10.13
2018-12-15T14:28:55.120Z,13.33
2018-12-15T14:31:38.094Z,12.87
2018-12-15T14:34:16.856Z,13.37
2018-12-15T14:36:56.258Z,12.83
2018-12-15T14:39:31.492Z,13.50
2018-12-15T14:42:06.278Z,14.03
2018-12-15T14:44:35.406Z,9.63
2018-12-15T14:47:05.486Z,14.57
2018-12-15T14:49:35.625Z,14.07
2018-12-15T14:52:04.294Z,14.10
2018-12-15T14:54:35.509Z,15.67
2018-12-15T14:59:34.715Z,14.03
2018-12-15T15:02:11.080Z,13.30
2018-12-15T15:04:43.206Z,11.90
2018-12-15T15:07:13.334Z,13.40
2018-12-15T15:09:46.369Z,15.47
2018-12-15T15:12:16.494Z,13.70
2018-12-15T15:14:57.287Z,14.87
2018-12-15T15:17:38.835Z,16.17
2018-12-15T15:20:11.836Z,14.67
2018-12-15T15:22:50.017Z,14.93
2018-12-15T15:25:25.425Z,14.83
2018-12-15T15:27:54.683Z,13.67
2018-12-15T15:30:29.940Z,12.57
2018-12-15T15:33:04.279Z,13.70
2018-12-15T15:35:40.270Z,15.47
2018-12-15T15:38:15.050Z,13.87
2018-12-15T15:40:45.357Z,15.00
2018-12-15T15:43:20.227Z,14.50
2018-12-15T15:45:56.868Z,14.43
2018-12-15T15:48:31.406Z,13.17
2018-12-15T15:51:10.483Z,11.13
2018-12-15T15:53:51.495Z,14.37
2018-12-15T15:56:25.055Z,13.47
2018-12-15T15:58:59.507Z,14.90
2018-12-15T16:01:33.478Z,13.23
2018-12-15T16:04:08.322Z,14.47
2018-12-15T16:06:46.991Z,14.83
2018-12-15T16:09:22.935Z,12.47
2018-12-15T16:11:53.419Z,15.27
2018-12-15T16:14:30.710Z,15.20
2018-12-15T16:17:10.281Z,14.13
2018-12-15T16:19:45.038Z,13.70
2018-12-15T16:22:20.600Z,14.70
2018-12-15T16:24:53.419Z,14.47
2018-12-15T16:27:28.451Z,13.80
2018-12-15T16:30:02.034Z,14.27
2018-12-15T16:32:42.916Z,15.30
2018-12-15T16:35:19.967Z,14.13
2018-12-15T16:37:59.890Z,11.60
2018-12-15T16:40:37.981Z,14.87
2018-12-15T16:43:22.516Z,11.47
2018-12-15T16:45:57.678Z,15.57
2018-12-15T16:48:32.829Z,15.50
2018-12-15T16:51:07.304Z,15.40
2018-12-15T16:53:42.752Z,14.53
2018-12-15T16:56:23.893Z,14.87
2018-12-15T16:59:03.383Z,13.33
2018-12-15T17:01:38.954Z,12.80
2018-12-15T17:04:17.906Z,15.03
2018-12-15T17:06:52.638Z,15.07
2018-12-15T17:09:29.215Z,14.63
2018-12-15T17:12:04.793Z,15.47
2018-12-15T17:14:38.947Z,16.60
2018-12-15T17:17:14.161Z,16.17
2018-12-15T17:19:51.101Z,15.97
2018-12-15T17:22:28.620Z,14.20
2018-12-15T17:25:12.339Z,11.27
2018-12-15T17:27:46.731Z,11.40
2018-12-15T17:30:35.341Z,11.83
2018-12-15T17:33:10.414Z,15.17
2018-12-15T17:35:52.078Z,17.50
2018-12-15T17:38:30.576Z,16.80
2018-12-15T17:41:05.027Z,16.70
2018-12-15T17:43:43.968Z,17.20
2018-12-15T17:46:23.469Z,15.60
2018-12-15T17:49:03.950Z,17.33
2018-12-15T17:51:44.665Z,14.10
2018-12-15T17:54:19.957Z,15.17
2018-12-15T17:59:54.049Z,14.53
2018-12-15T18:02:35.440Z,21.63
2018-12-15T18:05:10.724Z,15.77
2018-12-15T18:07:40.775Z,17.83
2018-12-15T18:10:15.795Z,17.50
2018-12-15T18:12:52.105Z,16.93
2018-12-15T18:15:26.558Z,15.90
2018-12-15T18:17:59.691Z,18.40
2018-12-15T18:20:38.248Z,16.63
2018-12-15T18:23:12.648Z,18.90
2018-12-15T18:28:38.001Z,23.03
2018-12-15T18:31:13.185Z,22.77
2018-12-15T18:33:47.163Z,17.87
2018-12-15T18:36:27.489Z,17.57
2018-12-15T18:39:08.524Z,21.90
2018-12-15T18:41:43.427Z,23.47
2018-12-15T18:44:24.803Z,23.87
2018-12-15T18:46:59.897Z,22.63
2018-12-15T18:52:38.462Z,19.00
2018-12-15T19:03:59.323Z,23.40
2018-12-15T19:06:34.811Z,23.77
2018-12-15T19:09:13.062Z,24.93
2018-12-15T19:11:49.374Z,24.00
2018-12-15T19:14:25.039Z,24.23
2018-12-15T19:16:55.142Z,23.80
2018-12-15T19:19:24.837Z,24.53
2018-12-15T19:24:54.329Z,23.77
2018-12-15T19:27:29.449Z,25.20
2018-12-15T19:30:08.272Z,24.47
2018-12-15T19:32:38.548Z,24.33
2018-12-15T19:35:18.850Z,27.47
2018-12-15T19:40:42.817Z,24.63
2018-12-15T19:43:17.427Z,24.17
2018-12-15T19:45:58.755Z,25.13
2018-12-15T19:48:33.432Z,24.50
2018-12-15T19:51:08.536Z,24.63
2018-12-15T19:53:43.338Z,24.90
2018-12-15T19:56:17.094Z,25.07
2018-12-15T19:58:51.491Z,25.27
2018-12-15T20:04:29.688Z,27.00
2018-12-15T20:07:08.179Z,26.23
2018-12-15T20:09:44.211Z,26.03
2018-12-15T20:12:22.817Z,25.30
2018-12-15T20:14:57.994Z,25.60
2018-12-15T20:17:31.965Z,26.57
2018-12-15T20:20:08.364Z,25.30
2018-12-15T20:22:46.487Z,24.63
2018-12-15T20:25:21.605Z,24.67
2018-12-15T20:27:56.690Z,26.70
2018-12-15T20:30:32.577Z,27.23
2018-12-15T20:33:07.870Z,27.43
2018-12-15T20:35:50.631Z,26.07
2018-12-15T20:38:27.329Z,25.43
2018-12-15T20:41:02.258Z,26.07
2018-12-15T20:43:38.298Z,27.47
2018-12-15T20:46:10.772Z,26.27
2018-12-15T20:48:46.797Z,26.23
2018-12-15T20:54:18.186Z,26.10
2018-12-15T20:56:50.655Z,25.33
2018-12-15T20:59:26.293Z,26.17
2018-12-15T21:02:00.969Z,26.20
2018-12-15T21:04:36.385Z,27.70
2018-12-15T21:07:11.614Z,30.33
2018-12-15T21:09:47.053Z,27.60
2018-12-15T21:12:22.856Z,27.87
2018-12-15T21:14:58.031Z,29.47
2018-12-15T21:17:37.870Z,25.30
2018-12-15T21:23:02.242Z,25.20
2018-12-15T21:25:43.215Z,25.47
2018-12-15T21:28:24.570Z,27.47
2018-12-15T21:31:03.817Z,26.33
2018-12-15T21:33:38.768Z,25.90
2018-12-15T21:36:18.062Z,26.40
2018-12-15T21:38:56.678Z,27.90
2018-12-15T21:41:37.861Z,26.50
2018-12-15T21:44:17.073Z,26.43
2018-12-15T21:46:46.906Z,25.13
2018-12-15T21:49:30.147Z,25.30
2018-12-15T21:52:04.659Z,26.83
2018-12-15T21:54:39.162Z,25.43
2018-12-15T21:57:14.509Z,25.90
2018-12-15T21:59:49.827Z,25.50
2018-12-15T22:02:25.330Z,25.60
2018-12-15T22:05:01.968Z,26.20
2018-12-15T22:07:40.640Z,26.67
2018-12-15T22:10:21.693Z,25.57
2018-12-15T22:12:58.918Z,25.70
2018-12-15T22:15:47.271Z,25.77
2018-12-15T22:18:17.375Z,26.37
2018-12-15T22:20:46.706Z,25.80
2018-12-15T22:23:25.284Z,24.60
2018-12-15T22:26:00.101Z,26.27
2018-12-15T22:28:34.161Z,21.20
2018-12-15T22:31:09.384Z,20.10
2018-12-15T22:33:44.538Z,19.87
2018-12-15T22:36:17.539Z,25.87
2018-12-15T22:38:48.745Z,19.53
2018-12-15T22:41:23.042Z,19.90
2018-12-15T22:43:59.433Z,20.63
2018-12-15T22:46:35.395Z,20.67
2018-12-15T22:49:07.721Z,19.93
2018-12-15T22:51:40.103Z,18.40
2018-12-15T22:54:15.177Z,19.67
2018-12-15T22:56:49.606Z,19.10
2018-12-15T22:59:30.179Z,20.47
2018-12-15T23:02:08.480Z,20.20
2018-12-15T23:04:43.401Z,20.13
2018-12-15T23:07:15.994Z,18.67
2018-12-15T23:09:51.280Z,20.07
2018-12-15T23:12:24.628Z,18.40
2018-12-15T23:14:58.910Z,18.03
2018-12-15T23:17:35.979Z,19.63
2018-12-15T23:20:07.868Z,19.30
2018-12-15T23:22:48.197Z,19.53
2018-12-15T23:25:20.666Z,18.67
2018-12-15T23:27:52.744Z,19.27
2018-12-15T23:30:33.131Z,18.03
2018-12-15T23:33:07.863Z,19.47
2018-12-15T23:35:42.683Z,19.80
2018-12-15T23:38:23.449Z,18.07
2018-12-15T23:40:58.321Z,18.07
2018-12-15T23:43:30.985Z,19.70
2018-12-15T23:46:03.146Z,17.87
2018-12-15T23:48:36.421Z,19.47
2018-12-15T23:51:10.880Z,19.70
2018-12-15T23:53:45.676Z,18.20
2018-12-15T23:56:22.231Z,19.00
2018-12-15T23:58:57.457Z,17.97
